Time;durP1;ratioP1;P1;durP2;ratioP2;P2;SDS_P1;SDS_P2;PMS_P1;PMS_P2;Temp;Humidity;BMP_temperature;BMP_pressure;BME280_temperature;BME280_humidity;BME280_pressure;Samples;Min_cycle;Max_cycle;Signal;HPM_P1;HPM_P2
2022/07/11 00:02:15;;;;;;;3.08;1.08;;;12.60;63.50;;;;;;5070564;28;20155;-50
2022/07/11 00:04:48;;;;;;;3.53;1.15;;;12.60;64.20;;;;;;5073239;28;20495;-46
2022/07/11 00:07:14;;;;;;;2.60;0.80;;;12.60;63.70;;;;;;5067342;28;20074;-41
2022/07/11 00:09:40;;;;;;;5.10;1.08;;;12.60;63.50;;;;;;5074082;28;20037;-49
2022/07/11 00:12:07;;;;;;;5.45;1.10;;;12.50;64.10;;;;;;5069576;28;20508;-58
2022/07/11 00:14:32;;;;;;;3.67;0.95;;;12.50;65.60;;;;;;5069338;28;20042;-56
2022/07/11 00:16:58;;;;;;;5.15;0.82;;;12.40;65.90;;;;;;5068096;28;20053;-58
2022/07/11 00:19:23;;;;;;;2.88;1.05;;;12.40;65.40;;;;;;5073633;28;20131;-58
2022/07/11 00:21:51;;;;;;;3.70;1.02;;;12.40;66.30;;;;;;5068848;28;20404;-58
2022/07/11 00:24:20;;;;;;;2.38;0.93;;;12.30;68.70;;;;;;5089829;28;20053;-58
2022/07/11 00:26:47;;;;;;;2.03;0.90;;;12.30;68.60;;;;;;5072316;28;20586;-58
2022/07/11 00:29:12;;;;;;;3.42;0.80;;;12.30;69.00;;;;;;5090917;28;20040;-57
2022/07/11 00:31:38;;;;;;;3.90;0.93;;;12.20;69.90;;;;;;5099093;28;20059;-57
2022/07/11 00:34:04;;;;;;;1.70;0.88;;;12.20;70.30;;;;;;5101570;28;20043;-58
2022/07/11 00:36:29;;;;;;;4.38;1.20;;;12.10;69.90;;;;;;5067032;28;20028;-57
2022/07/11 00:38:55;;;;;;;3.40;0.88;;;12.10;69.50;;;;;;5092053;28;20027;-58
2022/07/11 00:41:21;;;;;;;4.68;1.50;;;12.10;70.50;;;;;;5069020;28;20044;-58
2022/07/11 00:43:58;;;;;;;3.33;1.05;;;12.00;71.70;;;;;;5096964;28;20538;-58
2022/07/11 00:46:25;;;;;;;2.17;0.77;;;12.00;71.30;;;;;;5094168;28;20412;-57
2022/07/11 00:48:52;;;;;;;3.47;1.00;;;11.90;74.20;;;;;;5095412;28;20404;-57
2022/07/11 00:51:22;;;;;;;3.42;0.85;;;11.90;74.40;;;;;;5093189;28;20115;-58
2022/07/11 00:53:52;;;;;;;3.75;0.90;;;11.80;74.30;;;;;;5092343;28;20054;-57
2022/07/11 00:56:26;;;;;;;1.98;0.93;;;11.80;73.80;;;;;;5090901;28;20021;-57
2022/07/11 00:58:56;;;;;;;3.17;0.80;;;11.80;76.20;;;;;;5078773;28;20081;-58
2022/07/11 01:01:22;;;;;;;3.83;0.70;;;11.80;76.60;;;;;;5088428;28;20339;-57
2022/07/11 01:03:48;;;;;;;7.13;1.10;;;11.80;78.10;;;;;;5083956;28;20032;-56
2022/07/11 01:06:14;;;;;;;4.05;1.00;;;11.70;79.90;;;;;;5091878;28;20461;-58
2022/07/11 01:08:40;;;;;;;2.80;0.70;;;11.70;81.90;;;;;;5081503;28;20039;-58
2022/07/11 01:11:12;;;;;;;4.95;1.20;;;11.70;85.10;;;;;;5066392;28;20032;-56
2022/07/11 01:13:39;;;;;;;4.43;1.25;;;11.70;87.10;;;;;;5064622;28;20040;-56
2022/07/11 01:16:12;;;;;;;5.85;1.10;;;11.70;84.20;;;;;;5066932;28;20033;-58
2022/07/11 01:18:39;;;;;;;4.22;1.00;;;11.70;86.60;;;;;;5070923;28;20036;-56
2022/07/11 01:21:18;;;;;;;3.15;0.80;;;11.70;88.60;;;;;;5066415;28;20267;-58
2022/07/11 01:23:44;;;;;;;2.28;1.13;;;11.70;84.70;;;;;;5066552;28;20028;-58
2022/07/11 01:26:10;;;;;;;4.13;1.10;;;11.70;86.70;;;;;;5079461;28;20069;-57
2022/07/11 01:28:36;;;;;;;1.55;0.70;;;11.70;86.80;;;;;;5092407;28;20460;-56
2022/07/11 01:31:01;;;;;;;4.53;0.80;;;11.70;85.20;;;;;;5074053;28;20588;-57
2022/07/11 01:33:27;;;;;;;3.58;0.75;;;11.70;84.60;;;;;;5087178;28;20430;-59
2022/07/11 01:35:52;;;;;;;2.85;0.85;;;11.70;85.80;;;;;;5073417;28;20074;-57
2022/07/11 01:38:18;;;;;;;4.30;1.20;;;11.70;88.90;;;;;;5073792;28;20032;-57
2022/07/11 01:40:43;;;;;;;2.10;0.80;;;11.70;88.00;;;;;;5077005;28;20044;-56
2022/07/11 01:43:09;;;;;;;6.60;0.85;;;11.80;86.80;;;;;;5107735;28;20067;-55
2022/07/11 01:45:34;;;;;;;2.38;0.80;;;11.80;88.10;;;;;;5074097;28;20041;-58
2022/07/11 01:47:59;;;;;;;1.90;0.77;;;11.80;87.30;;;;;;5107431;28;20495;-57
2022/07/11 01:50:25;;;;;;;4.10;1.00;;;11.80;87.20;;;;;;5076150;28;20021;-57
2022/07/11 01:52:50;;;;;;;2.67;1.27;;;11.80;88.20;;;;;;5107850;28;20030;-57
2022/07/11 01:55:16;;;;;;;3.70;0.90;;;11.80;88.10;;;;;;5093638;28;20437;-55
2022/07/11 01:57:41;;;;;;;1.83;0.80;;;11.90;88.00;;;;;;5108052;28;20054;-57
2022/07/11 02:00:10;;;;;;;2.97;0.88;;;11.90;90.20;;;;;;5096154;28;20058;-57
2022/07/11 02:02:36;;;;;;;2.60;0.90;;;11.80;88.20;;;;;;5088658;28;20553;-58
2022/07/11 02:05:02;;;;;;;3.88;0.82;;;11.90;90.00;;;;;;5106380;28;20028;-56
2022/07/11 02:10:11;;;;;;;1.45;0.70;;;11.90;89.50;;;;;;5085825;28;20046;-55
2022/07/11 02:12:37;;;;;;;3.67;0.90;;;11.90;89.40;;;;;;5089160;28;20028;-57
2022/07/11 02:15:03;;;;;;;10.35;1.50;;;11.80;90.90;;;;;;5102917;28;20032;-58
2022/07/11 02:17:28;;;;;;;3.55;0.93;;;11.80;91.40;;;;;;5088991;28;20059;-57
2022/07/11 02:19:54;;;;;;;6.20;1.20;;;11.80;91.10;;;;;;5106025;28;20031;-54
2022/07/11 02:22:19;;;;;;;3.72;1.42;;;11.80;90.70;;;;;;5109005;28;20028;-57
2022/07/11 02:24:45;;;;;;;5.85;1.33;;;11.80;91.00;;;;;;5092925;28;20491;-55
2022/07/11 02:27:10;;;;;;;2.53;1.17;;;11.80;91.20;;;;;;5096620;28;20484;-55
2022/07/11 02:29:36;;;;;;;2.47;0.80;;;11.70;91.90;;;;;;5106192;28;20019;-55
2022/07/11 02:32:01;;;;;;;3.30;1.10;;;11.70;91.60;;;;;;5099872;28;20560;-57
2022/07/11 02:34:27;;;;;;;3.13;1.00;;;11.70;90.90;;;;;;5106064;28;20023;-57
2022/07/11 02:36:53;;;;;;;6.35;1.10;;;11.60;90.80;;;;;;5108800;28;20027;-57
2022/07/11 02:39:18;;;;;;;5.10;1.10;;;11.60;91.60;;;;;;5088972;28;20392;-56
2022/07/11 02:41:43;;;;;;;3.65;0.95;;;11.50;91.60;;;;;;5111619;28;20073;-56
2022/07/11 02:44:09;;;;;;;7.53;1.25;;;11.50;92.60;;;;;;5091765;28;20050;-57
2022/07/11 02:46:34;;;;;;;2.75;1.00;;;11.50;92.00;;;;;;5112761;28;20494;-58
2022/07/11 02:49:00;;;;;;;3.88;0.88;;;11.50;92.80;;;;;;5092852;28;20036;-57
2022/07/11 02:51:25;;;;;;;2.95;0.93;;;11.50;92.40;;;;;;5110250;28;20561;-57
2022/07/11 02:53:52;;;;;;;4.70;1.20;;;11.50;92.80;;;;;;5092692;28;20043;-57
2022/07/11 02:56:17;;;;;;;4.05;1.30;;;11.50;92.70;;;;;;5072130;28;20047;-58
2022/07/11 02:58:43;;;;;;;2.58;1.00;;;11.50;92.80;;;;;;5111103;28;20036;-58
2022/07/11 03:01:08;;;;;;;3.10;0.95;;;11.50;93.60;;;;;;5073057;28;20415;-56
2022/07/11 03:03:34;;;;;;;5.00;1.08;;;11.50;93.30;;;;;;5110989;28;20085;-58
2022/07/11 03:06:00;;;;;;;2.78;0.93;;;11.50;93.70;;;;;;5074544;28;20040;-57
2022/07/11 03:08:25;;;;;;;8.10;1.23;;;11.50;94.20;;;;;;5109552;28;20685;-57
2022/07/11 03:10:51;;;;;;;4.90;1.42;;;11.60;94.20;;;;;;5075321;28;20029;-57
2022/07/11 03:13:16;;;;;;;3.50;1.17;;;11.50;94.40;;;;;;5104653;28;20063;-58
2022/07/11 03:15:42;;;;;;;3.45;1.00;;;11.60;94.00;;;;;;5103744;28;20036;-56
2022/07/11 03:18:08;;;;;;;4.35;1.00;;;11.60;94.10;;;;;;5092128;28;20031;-57
2022/07/11 03:20:33;;;;;;;2.03;1.08;;;11.60;94.30;;;;;;5084319;28;20037;-56
2022/07/11 03:22:58;;;;;;;3.08;1.00;;;11.60;94.00;;;;;;5110400;28;20036;-57
2022/07/11 03:25:24;;;;;;;6.35;0.90;;;11.60;94.20;;;;;;5078719;28;20116;-56
2022/07/11 03:27:49;;;;;;;4.82;1.10;;;11.60;94.20;;;;;;5092719;28;20404;-56
2022/07/11 03:30:15;;;;;;;2.10;1.17;;;11.60;93.70;;;;;;5108803;28;20040;-56
2022/07/11 03:32:40;;;;;;;2.47;1.00;;;11.70;93.30;;;;;;5090515;28;20055;-57
2022/07/11 03:37:51;;;;;;;3.85;1.00;;;11.70;94.60;;;;;;5071136;28;20036;-57
2022/07/11 03:40:16;;;;;;;2.80;0.90;;;11.80;94.40;;;;;;5107981;28;20028;-58
2022/07/11 03:42:42;;;;;;;4.13;1.10;;;11.80;95.20;;;;;;5091413;28;20067;-53
2022/07/11 03:45:08;;;;;;;4.90;1.23;;;11.80;95.50;;;;;;5108459;28;20058;-55
2022/07/11 03:47:33;;;;;;;6.40;1.35;;;11.80;95.20;;;;;;5091516;28;20055;-55
2022/07/11 03:50:00;;;;;;;4.45;1.33;;;12.30;94.50;;;;;;5108475;28;20456;-52
2022/07/11 03:52:25;;;;;;;4.15;1.08;;;12.70;92.70;;;;;;5090158;28;20129;-56
2022/07/11 03:54:51;;;;;;;3.50;0.60;;;13.00;91.30;;;;;;5108387;28;20399;-57
2022/07/11 03:57:16;;;;;;;3.47;1.15;;;13.10;90.50;;;;;;5111233;28;20031;-57
2022/07/11 03:59:42;;;;;;;4.82;1.10;;;13.20;89.80;;;;;;5094776;28;20042;-56
2022/07/11 04:02:07;;;;;;;5.70;1.00;;;13.30;88.80;;;;;;5110869;28;20096;-58
2022/07/11 04:04:33;;;;;;;3.75;1.42;;;13.90;86.20;;;;;;5093632;28;20039;-58
2022/07/11 04:06:58;;;;;;;2.35;1.00;;;14.60;80.70;;;;;;5108799;28;20026;-56
2022/07/11 04:09:25;;;;;;;3.17;1.08;;;15.30;75.80;;;;;;5091486;28;20111;-58
2022/07/11 04:11:50;;;;;;;3.25;1.10;;;15.90;70.70;;;;;;5079732;28;20052;-58
2022/07/11 04:14:16;;;;;;;5.78;1.00;;;16.10;68.90;;;;;;5095686;28;20095;-57
2022/07/11 04:16:41;;;;;;;2.03;0.85;;;16.50;66.30;;;;;;5081934;28;20032;-58
2022/07/11 04:19:07;;;;;;;2.60;0.75;;;17.20;62.60;;;;;;5109559;28;20502;-56
2022/07/11 04:21:32;;;;;;;3.15;0.80;;;18.00;59.90;;;;;;5077495;28;20036;-58
2022/07/11 04:23:58;;;;;;;2.63;0.73;;;18.70;55.80;;;;;;5109504;28;20036;-58
2022/07/11 04:26:23;;;;;;;2.42;0.88;;;19.40;52.60;;;;;;5094116;28;20085;-58
2022/07/11 04:28:49;;;;;;;2.53;0.90;;;20.00;49.20;;;;;;5110140;28;20427;-57
2022/07/11 04:31:14;;;;;;;2.72;1.17;;;20.60;47.90;;;;;;5095904;28;20162;-58
2022/07/11 04:33:40;;;;;;;3.58;0.98;;;21.10;43.90;;;;;;5110124;28;20031;-58
2022/07/11 04:36:06;;;;;;;1.13;0.80;;;21.70;42.00;;;;;;5097098;28;20636;-59
2022/07/11 04:38:31;;;;;;;3.80;0.90;;;22.10;39.40;;;;;;5090829;28;20115;-57
2022/07/11 04:40:57;;;;;;;7.30;1.20;;;22.50;35.60;;;;;;5076072;28;20032;-59
2022/07/11 04:43:22;;;;;;;3.20;1.15;;;22.80;33.90;;;;;;5109063;28;20059;-59
2022/07/11 04:45:47;;;;;;;3.55;0.98;;;23.30;32.60;;;;;;5074410;28;20111;-59
2022/07/11 04:48:13;;;;;;;3.90;1.30;;;23.70;30.30;;;;;;5108972;28;20465;-59
2022/07/11 04:50:42;;;;;;;3.33;0.90;;;24.00;28.80;;;;;;5075372;28;20067;-59
2022/07/11 04:53:07;;;;;;;2.83;0.98;;;24.10;28.60;;;;;;5109732;28;20692;-58
2022/07/11 04:55:33;;;;;;;3.97;1.13;;;24.60;26.60;;;;;;5074986;28;20033;-59
2022/07/11 04:57:58;;;;;;;2.28;0.68;;;24.90;24.50;;;;;;5108681;28;20078;-59
2022/07/11 05:00:24;;;;;;;2.35;0.98;;;25.20;23.50;;;;;;5077321;28;20043;-60
2022/07/11 05:02:49;;;;;;;2.22;1.00;;;25.60;22.60;;;;;;5108746;28;20070;-57
2022/07/11 05:05:15;;;;;;;5.32;1.25;;;26.00;21.10;;;;;;5086317;28;20093;-59
2022/07/11 05:07:40;;;;;;;2.25;0.82;;;26.40;20.00;;;;;;5089525;28;20055;-59
2022/07/11 05:10:06;;;;;;;2.67;1.15;;;26.70;18.40;;;;;;5077204;28;20028;-60
2022/07/11 05:12:32;;;;;;;2.53;1.13;;;27.10;17.60;;;;;;5109081;28;20035;-59
2022/07/11 05:14:58;;;;;;;3.33;1.00;;;27.50;16.40;;;;;;5070428;28;20029;-58
2022/07/11 05:17:25;;;;;;;3.15;1.17;;;28.00;15.30;;;;;;5100483;28;20409;-59
2022/07/11 05:19:50;;;;;;;3.55;1.20;;;28.40;13.90;;;;;;5107002;28;20028;-58
2022/07/11 05:22:16;;;;;;;3.45;0.80;;;28.60;11.70;;;;;;5108542;28;20043;-59
2022/07/11 05:24:41;;;;;;;4.18;0.80;;;29.00;11.90;;;;;;5107402;28;20031;-59
2022/07/11 05:27:07;;;;;;;2.35;1.10;;;29.40;10.30;;;;;;5097945;28;20058;-59
2022/07/11 05:29:32;;;;;;;3.08;1.00;;;29.70;9.50;;;;;;5100658;28;20040;-59
2022/07/11 05:31:58;;;;;;;2.65;0.93;;;30.00;8.90;;;;;;5074241;28;20102;-59
2022/07/11 05:34:25;;;;;;;3.55;1.00;;;30.20;7.80;;;;;;5092441;28;20027;-59
2022/07/11 05:36:50;;;;;;;3.45;1.10;;;30.50;7.10;;;;;;5072350;28;20031;-59
2022/07/11 05:39:16;;;;;;;3.40;1.00;;;29.50;7.10;;;;;;5084665;28;20028;-59
2022/07/11 05:41:42;;;;;;;1.95;0.90;;;29.70;6.50;;;;;;5086370;28;20107;-59
2022/07/11 05:44:07;;;;;;;2.67;1.20;;;30.20;5.40;;;;;;5087362;28;20035;-60
2022/07/11 05:46:33;;;;;;;2.28;1.15;;;30.60;4.50;;;;;;5069162;28;20028;-59
2022/07/11 05:48:58;;;;;;;3.15;1.05;;;31.10;2.20;;;;;;5079732;28;20034;-59
2022/07/11 05:51:24;;;;;;;3.63;0.90;;;31.40;2.70;;;;;;5069460;28;20696;-59
2022/07/11 05:53:49;;;;;;;1.67;0.60;;;30.60;2.90;;;;;;5081888;28;20127;-58
2022/07/11 05:56:14;;;;;;;3.35;1.08;;;29.20;4.00;;;;;;5068843;28;20036;-59
2022/07/11 05:58:40;;;;;;;2.03;0.90;;;27.90;5.10;;;;;;5079629;28;20265;-59
2022/07/11 06:01:05;;;;;;;3.25;1.00;;;26.80;6.40;;;;;;5069600;28;20029;-59
2022/07/11 06:03:31;;;;;;;1.75;0.85;;;26.30;7.10;;;;;;5080251;28;20029;-59
2022/07/11 06:05:56;;;;;;;3.08;1.10;;;27.40;6.00;;;;;;5064494;28;20032;-59
2022/07/11 06:08:40;;;;;;;2.47;1.00;;;27.90;5.00;;;;;;5072626;28;20389;-59
2022/07/11 06:11:06;;;;;;;3.05;0.90;;;28.90;4.20;;;;;;5064391;28;20040;-50
2022/07/11 06:13:31;;;;;;;2.03;0.80;;;30.20;1.70;;;;;;5081338;28;20054;-44
2022/07/11 06:15:57;;;;;;;3.63;1.00;;;31.10;1.40;;;;;;5077211;28;20039;-44
2022/07/11 06:18:23;;;;;;;2.75;0.90;;;31.90;1.00;;;;;;5069848;28;20111;-44
2022/07/11 06:20:49;;;;;;;2.38;1.00;;;32.50;1.00;;;;;;5108209;28;20027;-46
2022/07/11 06:23:15;;;;;;;5.05;1.10;;;32.90;1.00;;;;;;5093246;28;20500;-50
2022/07/11 06:25:40;;;;;;;1.90;1.00;;;33.50;1.00;;;;;;5107546;28;20089;-49
2022/07/11 06:28:06;;;;;;;2.03;1.10;;;33.80;1.00;;;;;;5090913;28;20032;-46
2022/07/11 06:30:32;;;;;;;4.28;1.20;;;34.10;1.00;;;;;;5096482;28;20125;-44
2022/07/11 06:32:58;;;;;;;3.60;1.30;;;34.50;1.00;;;;;;5087109;28;20445;-49
2022/07/11 06:35:24;;;;;;;1.50;1.00;;;34.90;1.00;;;;;;5092652;28;20032;-49
2022/07/11 06:37:49;;;;;;;3.67;1.00;;;35.50;1.00;;;;;;5112752;28;20070;-51
2022/07/11 06:40:17;;;;;;;3.55;1.00;;;35.60;1.00;;;;;;5092933;28;20396;-49
2022/07/11 06:42:43;;;;;;;3.33;1.02;;;35.80;1.00;;;;;;5112511;28;20028;-52
2022/07/11 06:45:09;;;;;;;3.75;1.25;;;36.00;1.00;;;;;;5091910;28;20039;-52
2022/07/11 06:47:35;;;;;;;2.70;1.02;;;36.20;1.00;;;;;;5112414;28;20038;-52
2022/07/11 06:50:01;;;;;;;3.50;1.02;;;36.60;1.00;;;;;;5090915;28;20027;-52
2022/07/11 06:52:26;;;;;;;3.70;1.02;;;36.70;1.00;;;;;;5112368;28;20035;-48
2022/07/11 06:54:51;;;;;;;2.03;0.70;;;36.20;1.00;;;;;;5092270;28;20076;-52
2022/07/11 06:57:17;;;;;;;2.83;1.00;;;36.40;1.00;;;;;;5109624;28;20024;-48
2022/07/11 06:59:42;;;;;;;4.25;1.10;;;36.90;1.00;;;;;;5092236;28;20040;-49
2022/07/11 07:02:08;;;;;;;3.00;1.02;;;37.20;1.00;;;;;;5072698;28;20056;-52
2022/07/11 07:04:34;;;;;;;2.08;0.80;;;37.40;1.00;;;;;;5110873;28;20443;-45
2022/07/11 07:07:00;;;;;;;2.70;0.80;;;37.70;1.00;;;;;;5073300;28;20037;-46
2022/07/11 07:09:26;;;;;;;3.58;1.00;;;38.00;1.00;;;;;;5110772;28;20288;-50
2022/07/11 07:11:52;;;;;;;3.58;1.25;;;38.50;1.00;;;;;;5074206;28;20033;-50
2022/07/11 07:14:17;;;;;;;2.97;1.00;;;39.00;1.00;;;;;;5092213;28;20460;-47
2022/07/11 07:16:43;;;;;;;4.80;1.23;;;39.40;1.00;;;;;;5079634;28;20039;-50
2022/07/11 07:19:08;;;;;;;3.38;0.90;;;39.80;1.00;;;;;;5110476;28;20491;-51
2022/07/11 07:21:34;;;;;;;2.20;1.10;;;39.60;1.00;;;;;;5076594;28;20029;-51
2022/07/11 07:23:59;;;;;;;3.92;1.05;;;38.90;1.00;;;;;;5110342;28;20024;-52
2022/07/11 07:26:25;;;;;;;2.67;1.15;;;38.40;1.00;;;;;;5088977;28;20525;-50
2022/07/11 07:28:50;;;;;;;1.83;0.88;;;38.30;1.00;;;;;;5091821;28;20064;-51
2022/07/11 07:31:16;;;;;;;1.95;1.00;;;36.90;1.00;;;;;;5105822;28;20040;-49
2022/07/11 07:33:41;;;;;;;2.47;0.90;;;36.40;1.00;;;;;;5110812;28;20038;-50
2022/07/11 07:36:07;;;;;;;3.05;0.88;;;35.70;1.00;;;;;;5099323;28;20297;-48
2022/07/11 07:38:33;;;;;;;1.88;0.85;;;34.80;1.00;;;;;;5091727;28;20038;-51
2022/07/11 07:40:58;;;;;;;3.00;0.82;;;34.20;1.00;;;;;;5108450;28;20153;-46
2022/07/11 07:43:23;;;;;;;1.50;0.73;;;33.60;1.00;;;;;;5091668;28;20466;-45
2022/07/11 07:45:49;;;;;;;3.47;1.00;;;33.00;1.00;;;;;;5108571;28;20035;-47
2022/07/11 07:48:14;;;;;;;2.90;0.98;;;32.70;1.00;;;;;;5111209;28;20387;-45
2022/07/11 07:50:41;;;;;;;1.98;0.90;;;32.90;1.00;;;;;;5095196;28;20285;-46
2022/07/11 07:53:07;;;;;;;3.83;1.10;;;33.60;1.00;;;;;;5111118;28;20032;-47
2022/07/11 07:55:33;;;;;;;2.75;0.93;;;34.60;1.00;;;;;;5094325;28;20035;-46
2022/07/11 07:57:58;;;;;;;4.13;0.90;;;35.70;1.00;;;;;;5111004;28;20439;-47
2022/07/11 08:03:08;;;;;;;1.67;0.80;;;36.90;1.00;;;;;;5110921;28;20050;-44
2022/07/11 08:05:35;;;;;;;2.03;1.00;;;36.70;1.00;;;;;;5094468;28;20479;-48
2022/07/11 08:08:00;;;;;;;1.75;0.88;;;36.30;1.00;;;;;;5110844;28;20027;-44
2022/07/11 08:10:26;;;;;;;2.00;0.80;;;35.90;1.00;;;;;;5092710;28;20043;-44
2022/07/11 08:12:51;;;;;;;1.85;1.25;;;36.00;1.00;;;;;;5110856;28;20053;-46
2022/07/11 08:15:17;;;;;;;1.65;0.60;;;36.40;1.00;;;;;;5084150;28;20062;-52
2022/07/11 08:17:42;;;;;;;2.45;0.80;;;36.90;1.00;;;;;;5110545;28;20032;-45
2022/07/11 08:20:08;;;;;;;0.60;0.50;;;37.00;1.00;;;;;;5089999;28;20107;-49
2022/07/11 08:22:34;;;;;;;1.00;0.60;;;37.10;1.00;;;;;;5110770;28;20035;-49
2022/07/11 08:24:59;;;;;;;3.13;1.00;;;36.90;1.00;;;;;;5088696;28;20039;-45
2022/07/11 08:27:25;;;;;;;2.67;0.63;;;36.80;1.00;;;;;;5096091;28;20167;-51
2022/07/11 08:29:50;;;;;;;0.93;0.55;;;36.60;1.00;;;;;;5108534;28;20035;-46
2022/07/11 08:32:16;;;;;;;1.40;0.70;;;36.50;1.00;;;;;;5079400;28;20044;-50
2022/07/11 08:34:41;;;;;;;2.78;0.93;;;36.50;1.00;;;;;;5089845;28;20027;-50
2022/07/11 08:37:07;;;;;;;1.63;0.73;;;36.30;1.00;;;;;;5071255;28;20085;-45
2022/07/11 08:39:32;;;;;;;0.90;0.73;;;36.00;1.00;;;;;;5108315;28;20020;-44
2022/07/11 08:41:58;;;;;;;0.82;0.60;;;35.80;1.00;;;;;;5071507;28;20495;-51
2022/07/11 08:44:24;;;;;;;2.20;0.90;;;35.60;1.00;;;;;;5109102;28;20036;-48
2022/07/11 08:46:52;;;;;;;1.30;0.50;;;35.20;1.00;;;;;;5072683;28;20096;-52
2022/07/11 08:49:19;;;;;;;1.60;0.55;;;35.10;1.00;;;;;;5109294;28;20081;-48
2022/07/11 08:51:46;;;;;;;3.55;0.80;;;34.70;1.00;;;;;;5072963;28;20043;-52
2022/07/11 08:54:12;;;;;;;2.28;0.80;;;34.50;1.00;;;;;;5109008;28;20050;-51
2022/07/11 08:56:37;;;;;;;1.88;0.70;;;34.00;1.00;;;;;;5074060;28;20032;-49
2022/07/11 08:59:04;;;;;;;0.88;0.50;;;33.70;1.00;;;;;;5108842;28;20038;-50
2022/07/11 09:01:34;;;;;;;2.65;0.63;;;33.60;1.00;;;;;;5075241;28;20043;-50
2022/07/11 09:04:01;;;;;;;2.85;0.80;;;33.60;1.00;;;;;;5069127;28;20059;-46
2022/07/11 09:06:27;;;;;;;2.40;0.60;;;33.70;1.00;;;;;;5081508;28;20208;-46
2022/07/11 09:09:00;;;;;;;2.55;0.70;;;33.70;1.00;;;;;;5108499;28;20032;-47
2022/07/11 09:11:26;;;;;;;1.00;0.52;;;32.60;1.00;;;;;;5067032;28;20542;-49
2022/07/11 09:13:52;;;;;;;2.15;0.68;;;32.50;1.00;;;;;;5096721;28;20063;-45
2022/07/11 09:16:19;;;;;;;1.38;0.70;;;32.40;1.00;;;;;;5084630;28;20055;-48
2022/07/11 09:18:44;;;;;;;3.55;0.85;;;32.30;1.00;;;;;;5108331;28;20491;-49
2022/07/11 09:26:49;;;;;;;2.20;0.55;;;32.30;1.00;;;;;;5084253;28;20113;-49
2022/07/11 09:29:16;;;;;;;1.67;0.60;;;32.20;1.00;;;;;;5068871;28;20064;-44
2022/07/11 09:31:46;;;;;;;2.30;0.73;;;31.80;1.00;;;;;;5082944;28;20046;-50
2022/07/11 09:34:14;;;;;;;2.47;0.60;;;31.40;1.00;;;;;;5068640;28;20032;-50
2022/07/11 09:36:43;;;;;;;0.93;0.47;;;31.20;1.00;;;;;;5076419;28;20032;-49
2022/07/11 09:39:12;;;;;;;0.80;0.50;;;31.20;1.00;;;;;;5108698;28;20546;-47
2022/07/11 09:41:39;;;;;;;0.95;0.60;;;31.10;1.00;;;;;;5072930;28;20122;-48
2022/07/11 09:44:15;;;;;;;1.48;0.47;;;30.90;1.00;;;;;;5088193;28;20028;-45
2022/07/11 09:46:43;;;;;;;1.42;0.55;;;30.90;1.00;;;;;;5066658;28;20021;-44
2022/07/11 09:49:09;;;;;;;2.10;0.68;;;30.80;1.00;;;;;;5107839;28;20036;-49
2022/07/11 09:51:36;;;;;;;0.75;0.43;;;30.80;1.00;;;;;;5072992;28;20119;-47
2022/07/11 09:54:04;;;;;;;1.05;0.47;;;30.60;1.00;;;;;;5108259;28;20118;-51
2022/07/11 09:56:38;;;;;;;2.03;0.40;;;30.60;1.00;;;;;;5073904;28;20028;-46
2022/07/11 09:59:04;;;;;;;1.33;0.60;;;30.40;1.00;;;;;;5068624;28;20083;-43
2022/07/11 10:01:30;;;;;;;0.70;0.40;;;30.10;1.00;;;;;;5080445;28;20205;-45
2022/07/11 10:03:57;;;;;;;0.98;0.52;;;29.40;1.00;;;;;;5107549;28;20111;-44
2022/07/11 10:06:23;;;;;;;1.98;0.75;;;29.50;1.00;;;;;;5075135;28;20041;-47
2022/07/11 10:08:50;;;;;;;0.68;0.50;;;29.50;1.00;;;;;;5105510;28;20022;-43
2022/07/11 10:11:16;;;;;;;1.38;0.60;;;29.50;1.00;;;;;;5108827;28;20034;-46
2022/07/11 10:13:41;;;;;;;1.30;0.50;;;29.40;1.00;;;;;;5084159;28;20032;-46
2022/07/11 10:16:15;;;;;;;3.28;0.70;;;29.30;1.00;;;;;;5068147;28;20028;-44
2022/07/11 10:18:50;;;;;;;2.03;0.50;;;29.40;1.00;;;;;;5070958;28;20086;-50
2022/07/11 10:21:31;;;;;;;0.70;0.40;;;29.20;1.00;;;;;;5106383;28;20028;-44
2022/07/11 10:24:15;;;;;;;2.33;0.77;;;29.10;1.00;;;;;;5106503;28;20056;-44
2022/07/11 10:27:04;;;;;;;1.50;0.50;;;29.00;1.00;;;;;;5084678;28;20027;-50
2022/07/11 10:29:48;;;;;;;1.80;0.40;;;29.00;1.00;;;;;;5079818;28;20123;-47
2022/07/11 10:32:14;;;;;;;0.93;0.50;;;28.90;1.00;;;;;;5082528;28;20071;-43
2022/07/11 10:34:40;;;;;;;0.45;0.30;;;28.50;1.00;;;;;;5108495;28;20055;-45
2022/07/11 10:37:07;;;;;;;2.50;0.85;;;28.40;1.00;;;;;;5088898;28;20089;-44
2022/07/11 10:39:34;;;;;;;2.03;0.60;;;28.30;1.00;;;;;;5067542;28;20035;-49
2022/07/11 10:42:03;;;;;;;0.57;0.40;;;28.20;1.00;;;;;;5103571;28;20080;-45
2022/07/11 10:44:48;;;;;;;0.57;0.30;;;28.10;1.00;;;;;;5107903;28;20475;-47
2022/07/11 10:47:34;;;;;;;2.22;0.35;;;28.20;1.00;;;;;;5067130;28;20043;-49
2022/07/11 10:50:10;;;;;;;1.10;0.60;;;28.00;1.00;;;;;;5108853;28;20024;-49
2022/07/11 10:52:39;;;;;;;3.55;0.98;;;27.90;1.00;;;;;;5074832;28;20123;-47
2022/07/11 10:55:37;;;;;;;0.95;0.40;;;27.80;1.00;;;;;;5068756;28;20033;-48
2022/07/11 10:58:25;;;;;;;0.63;0.40;;;27.60;1.00;;;;;;5075226;28;20502;-48
2022/07/11 11:01:11;;;;;;;1.40;0.52;;;27.40;1.00;;;;;;5089151;28;20491;-48
2022/07/11 11:03:37;;;;;;;;;;;27.10;1.00;;;;;;5113132;28;20043;-46
2022/07/11 11:06:03;;;;;;;0.75;0.35;;;26.70;1.00;;;;;;5093976;28;19949;-44
2022/07/11 11:08:38;;;;;;;3.10;0.60;;;26.60;1.00;;;;;;5112778;28;20028;-44
2022/07/11 11:11:20;;;;;;;1.58;0.50;;;26.20;1.00;;;;;;5093720;28;20108;-46
2022/07/11 11:13:45;;;;;;;1.15;0.50;;;25.90;1.00;;;;;;5099154;28;20040;-43
2022/07/11 11:16:24;;;;;;;0.85;0.57;;;26.00;1.00;;;;;;5094044;28;20064;-49
2022/07/11 11:18:50;;;;;;;1.15;0.50;;;26.10;1.00;;;;;;5112753;27;20479;-45
2022/07/11 11:21:18;;;;;;;1.55;0.50;;;26.20;1.00;;;;;;5095806;28;20027;-46
2022/07/11 11:23:45;;;;;;;1.70;0.40;;;26.40;1.00;;;;;;5112579;27;20027;-43
2022/07/11 11:26:18;;;;;;;0.57;0.40;;;26.40;1.00;;;;;;5090439;28;20040;-44
2022/07/11 11:29:00;;;;;;;1.38;0.60;;;26.30;1.00;;;;;;5091770;28;20055;-44
2022/07/11 11:31:27;;;;;;;0.85;0.20;;;26.30;1.00;;;;;;5105303;28;20170;-44
2022/07/11 11:33:53;;;;;;;1.00;0.40;;;26.40;1.00;;;;;;5084572;28;20029;-45
2022/07/11 11:36:22;;;;;;;1.05;0.57;;;26.40;1.00;;;;;;5072444;28;20050;-45
2022/07/11 11:38:48;;;;;;;3.25;0.50;;;26.30;1.00;;;;;;5099577;28;20403;-50
2022/07/11 11:41:23;;;;;;;0.93;0.38;;;26.30;1.00;;;;;;5079034;28;20016;-48
2022/07/11 11:43:49;;;;;;;0.93;0.35;;;26.30;1.00;;;;;;5080051;28;20020;-44
2022/07/11 11:46:14;;;;;;;0.73;0.32;;;26.00;1.00;;;;;;5077013;28;20039;-46
2022/07/11 11:48:46;;;;;;;0.40;0.40;;;26.00;1.00;;;;;;5088620;28;20021;-46
2022/07/11 11:51:20;;;;;;;1.92;0.60;;;26.00;1.00;;;;;;5070231;28;20040;-45
2022/07/11 11:53:48;;;;;;;0.30;0.30;;;25.80;1.00;;;;;;5085631;28;20036;-44
2022/07/11 11:56:21;;;;;;;0.73;0.43;;;25.80;1.00;;;;;;5090627;28;20761;-44
2022/07/11 11:58:46;;;;;;;2.90;0.50;;;25.80;1.00;;;;;;5068526;28;20017;-43
2022/07/11 12:01:13;;;;;;;1.27;0.40;;;25.80;1.00;;;;;;5074075;28;20044;-45
2022/07/11 12:04:05;;;;;;;0.90;0.30;;;25.80;1.00;;;;;;5083318;28;20142;-43
2022/07/11 12:06:35;;;;;;;1.00;0.50;;;25.70;1.00;;;;;;5081984;28;20488;-43
2022/07/11 12:09:13;;;;;;;0.45;0.40;;;25.50;1.00;;;;;;5083756;28;20079;-48
2022/07/11 12:11:44;;;;;;;0.22;0.22;;;25.20;1.00;;;;;;5076772;28;20055;-45
2022/07/11 12:14:20;;;;;;;0.22;0.20;;;25.00;1.00;;;;;;5085404;28;20106;-47
2022/07/11 12:16:58;;;;;;;0.43;0.30;;;24.90;1.00;;;;;;5079947;28;20033;-56
2022/07/11 12:19:41;;;;;;;0.80;0.52;;;25.00;1.00;;;;;;5068244;28;20035;-49
2022/07/11 12:22:25;;;;;;;0.70;0.40;;;25.20;1.00;;;;;;5066440;28;20024;-51
2022/07/11 12:24:52;;;;;;;0.75;0.52;;;25.50;1.00;;;;;;5069220;28;20036;-48
2022/07/11 12:27:25;;;;;;;1.92;0.65;;;25.40;1.00;;;;;;5075975;28;20051;-51
2022/07/11 12:30:06;;;;;;;0.40;0.30;;;25.40;1.00;;;;;;5069926;28;20039;-48
2022/07/11 12:33:04;;;;;;;1.40;0.35;;;25.50;1.00;;;;;;5082992;28;20155;-50
2022/07/11 12:35:31;;;;;;;0.93;0.30;;;25.40;1.00;;;;;;5067658;28;20150;-51
2022/07/11 12:37:58;;;;;;;0.80;0.35;;;25.00;1.00;;;;;;5069843;28;20667;-51
2022/07/11 12:40:27;;;;;;;1.05;0.40;;;25.00;1.00;;;;;;5086748;28;20031;-46
2022/07/11 12:42:55;;;;;;;2.03;0.68;;;24.80;1.00;;;;;;5067669;28;20036;-48
2022/07/11 12:45:24;;;;;;;0.77;0.50;;;24.80;1.00;;;;;;5102625;28;20414;-51
2022/07/11 12:47:55;;;;;;;1.13;0.40;;;24.80;1.00;;;;;;5067841;28;20067;-48
2022/07/11 12:50:27;;;;;;;0.68;0.38;;;24.80;1.00;;;;;;5095049;28;20461;-51
2022/07/11 12:53:00;;;;;;;1.02;0.40;;;25.00;1.00;;;;;;5078769;28;20121;-47
2022/07/11 12:55:35;;;;;;;1.58;0.50;;;25.20;1.00;;;;;;5081757;28;20047;-51
2022/07/11 12:58:18;;;;;;;1.42;0.30;;;25.30;1.00;;;;;;5070691;28;20119;-53
2022/07/11 13:01:00;;;;;;;0.88;0.35;;;25.50;1.00;;;;;;5072724;28;20087;-46
2022/07/11 13:03:38;;;;;;;0.63;0.32;;;25.60;1.00;;;;;;5065925;28;20036;-48
2022/07/11 13:06:08;;;;;;;2.20;0.57;;;25.70;1.00;;;;;;5069576;28;20103;-49
2022/07/11 13:08:48;;;;;;;1.73;0.65;;;25.20;1.00;;;;;;5066029;28;20036;-49
2022/07/11 13:11:20;;;;;;;1.85;0.60;;;25.10;1.00;;;;;;5068334;28;20086;-48